sensor_id;sensor_type;location;lat;lon;timestamp;P1;durP1;ratioP1;P2;durP2;ratioP2
49870;SDS011;35767;52.322;9.122;2024-01-15T00:02:00;9.93;;;8.52;;
49870;SDS011;35767;52.322;9.122;2024-01-15T00:05:01;10.65;;;8.90;;
49870;SDS011;35767;52.322;9.122;2024-01-15T00:08:03;9.80;;;8.07;;
49870;SDS011;35767;52.322;9.122;2024-01-15T00:11:05;9.95;;;8.43;;
49870;SDS011;35767;52.322;9.122;2024-01-15T00:14:06;11.32;;;8.45;;
49870;SDS011;35767;52.322;9.122;2024-01-15T00:17:09;10.18;;;8.13;;
49870;SDS011;35767;52.322;9.122;2024-01-15T00:20:11;9.25;;;7.72;;
49870;SDS011;35767;52.322;9.122;2024-01-15T00:23:13;9.25;;;7.40;;
49870;SDS011;35767;52.322;9.122;2024-01-15T00:26:14;8.32;;;7.28;;
49870;SDS011;35767;52.322;9.122;2024-01-15T00:29:16;7.13;;;5.95;;
49870;SDS011;35767;52.322;9.122;2024-01-15T00:32:19;7.57;;;6.43;;
49870;SDS011;35767;52.322;9.122;2024-01-15T00:35:20;10.68;;;6.70;;
49870;SDS011;35767;52.322;9.122;2024-01-15T00:38:23;8.18;;;5.63;;
49870;SDS011;35767;52.322;9.122;2024-01-15T00:41:25;6.97;;;4.88;;
49870;SDS011;35767;52.322;9.122;2024-01-15T00:44:27;7.57;;;4.80;;
49870;SDS011;35767;52.322;9.122;2024-01-15T00:50:32;7.05;;;4.53;;
49870;SDS011;35767;52.322;9.122;2024-01-15T00:53:34;7.35;;;3.40;;
49870;SDS011;35767;52.322;9.122;2024-01-15T00:56:36;6.78;;;3.70;;
49870;SDS011;35767;52.322;9.122;2024-01-15T01:02:41;7.53;;;3.15;;
49870;SDS011;35767;52.322;9.122;2024-01-15T01:05:43;18.42;;;3.40;;
49870;SDS011;35767;52.322;9.122;2024-01-15T01:08:44;8.13;;;4.18;;
49870;SDS011;35767;52.322;9.122;2024-01-15T01:11:46;6.13;;;3.55;;
49870;SDS011;35767;52.322;9.122;2024-01-15T01:14:48;10.25;;;4.55;;
49870;SDS011;35767;52.322;9.122;2024-01-15T01:17:51;6.82;;;3.80;;
49870;SDS011;35767;52.322;9.122;2024-01-15T01:20:53;6.20;;;4.25;;
49870;SDS011;35767;52.322;9.122;2024-01-15T01:23:54;9.20;;;5.07;;
49870;SDS011;35767;52.322;9.122;2024-01-15T01:26:57;6.97;;;3.92;;
49870;SDS011;35767;52.322;9.122;2024-01-15T01:29:59;9.05;;;4.45;;
49870;SDS011;35767;52.322;9.122;2024-01-15T01:33:02;9.15;;;4.97;;
49870;SDS011;35767;52.322;9.122;2024-01-15T01:36:06;7.97;;;4.85;;
49870;SDS011;35767;52.322;9.122;2024-01-15T01:39:08;10.30;;;4.93;;
49870;SDS011;35767;52.322;9.122;2024-01-15T01:42:10;6.45;;;4.75;;
49870;SDS011;35767;52.322;9.122;2024-01-15T01:45:12;9.15;;;4.93;;
49870;SDS011;35767;52.322;9.122;2024-01-15T01:48:15;10.68;;;4.65;;
49870;SDS011;35767;52.322;9.122;2024-01-15T01:51:17;8.07;;;4.38;;
49870;SDS011;35767;52.322;9.122;2024-01-15T01:54:19;9.52;;;4.43;;
49870;SDS011;35767;52.322;9.122;2024-01-15T01:57:22;15.48;;;4.03;;
49870;SDS011;35767;52.322;9.122;2024-01-15T02:00:23;8.25;;;3.72;;
49870;SDS011;35767;52.322;9.122;2024-01-15T02:03:27;4.50;;;3.50;;
49870;SDS011;35767;52.322;9.122;2024-01-15T02:06:29;8.60;;;3.35;;
49870;SDS011;35767;52.322;9.122;2024-01-15T02:09:31;5.88;;;3.60;;
49870;SDS011;35767;52.322;9.122;2024-01-15T02:12:33;5.72;;;3.13;;
49870;SDS011;35767;52.322;9.122;2024-01-15T02:15:34;5.93;;;2.85;;
49870;SDS011;35767;52.322;9.122;2024-01-15T02:18:41;7.40;;;2.80;;
49870;SDS011;35767;52.322;9.122;2024-01-15T02:21:43;4.80;;;2.63;;
49870;SDS011;35767;52.322;9.122;2024-01-15T02:24:46;4.65;;;2.70;;
49870;SDS011;35767;52.322;9.122;2024-01-15T02:27:48;12.52;;;3.15;;
49870;SDS011;35767;52.322;9.122;2024-01-15T02:30:50;5.35;;;2.70;;
49870;SDS011;35767;52.322;9.122;2024-01-15T02:33:51;9.13;;;2.50;;
49870;SDS011;35767;52.322;9.122;2024-01-15T02:36:53;4.28;;;2.38;;
49870;SDS011;35767;52.322;9.122;2024-01-15T02:39:56;7.72;;;2.72;;
49870;SDS011;35767;52.322;9.122;2024-01-15T02:42:58;12.18;;;2.00;;
49870;SDS011;35767;52.322;9.122;2024-01-15T02:46:27;5.15;;;2.58;;
49870;SDS011;35767;52.322;9.122;2024-01-15T02:49:29;10.80;;;2.08;;
49870;SDS011;35767;52.322;9.122;2024-01-15T02:52:31;6.20;;;1.92;;
49870;SDS011;35767;52.322;9.122;2024-01-15T02:55:34;5.70;;;2.05;;
49870;SDS011;35767;52.322;9.122;2024-01-15T02:58:35;5.57;;;2.05;;
49870;SDS011;35767;52.322;9.122;2024-01-15T03:01:37;10.75;;;2.83;;
49870;SDS011;35767;52.322;9.122;2024-01-15T03:04:42;5.38;;;2.03;;
49870;SDS011;35767;52.322;9.122;2024-01-15T03:07:44;7.88;;;1.98;;
49870;SDS011;35767;52.322;9.122;2024-01-15T03:10:47;4.43;;;1.95;;
49870;SDS011;35767;52.322;9.122;2024-01-15T03:13:49;5.22;;;1.73;;
49870;SDS011;35767;52.322;9.122;2024-01-15T03:16:54;4.93;;;1.60;;
49870;SDS011;35767;52.322;9.122;2024-01-15T03:19:56;9.07;;;3.30;;
49870;SDS011;35767;52.322;9.122;2024-01-15T03:22:57;5.97;;;2.33;;
49870;SDS011;35767;52.322;9.122;2024-01-15T03:26:00;8.52;;;2.00;;
49870;SDS011;35767;52.322;9.122;2024-01-15T03:29:02;10.57;;;2.58;;
49870;SDS011;35767;52.322;9.122;2024-01-15T03:32:03;4.30;;;1.70;;
49870;SDS011;35767;52.322;9.122;2024-01-15T03:35:05;10.52;;;1.75;;
49870;SDS011;35767;52.322;9.122;2024-01-15T03:38:08;7.93;;;2.13;;
49870;SDS011;35767;52.322;9.122;2024-01-15T03:41:10;7.00;;;2.67;;
49870;SDS011;35767;52.322;9.122;2024-01-15T03:44:13;13.27;;;2.42;;
49870;SDS011;35767;52.322;9.122;2024-01-15T03:47:15;8.88;;;2.72;;
49870;SDS011;35767;52.322;9.122;2024-01-15T03:50:16;12.60;;;2.78;;
49870;SDS011;35767;52.322;9.122;2024-01-15T03:53:18;8.55;;;2.30;;
49870;SDS011;35767;52.322;9.122;2024-01-15T03:56:21;7.28;;;2.28;;
49870;SDS011;35767;52.322;9.122;2024-01-15T03:59:22;6.20;;;1.70;;
49870;SDS011;35767;52.322;9.122;2024-01-15T04:02:24;4.20;;;1.70;;
49870;SDS011;35767;52.322;9.122;2024-01-15T04:05:26;5.20;;;2.00;;
49870;SDS011;35767;52.322;9.122;2024-01-15T04:08:27;10.30;;;1.70;;
49870;SDS011;35767;52.322;9.122;2024-01-15T04:11:30;7.57;;;2.50;;
49870;SDS011;35767;52.322;9.122;2024-01-15T04:14:32;6.97;;;1.95;;
49870;SDS011;35767;52.322;9.122;2024-01-15T04:17:34;6.45;;;1.95;;
49870;SDS011;35767;52.322;9.122;2024-01-15T04:20:36;3.90;;;1.75;;
49870;SDS011;35767;52.322;9.122;2024-01-15T04:23:38;5.55;;;1.95;;
49870;SDS011;35767;52.322;9.122;2024-01-15T04:26:41;7.00;;;1.55;;
49870;SDS011;35767;52.322;9.122;2024-01-15T04:29:43;5.47;;;1.92;;
49870;SDS011;35767;52.322;9.122;2024-01-15T04:32:44;6.35;;;2.13;;
49870;SDS011;35767;52.322;9.122;2024-01-15T04:35:46;7.78;;;2.05;;
49870;SDS011;35767;52.322;9.122;2024-01-15T04:38:49;9.57;;;2.60;;
49870;SDS011;35767;52.322;9.122;2024-01-15T04:41:52;9.82;;;2.15;;
49870;SDS011;35767;52.322;9.122;2024-01-15T04:44:54;7.97;;;2.45;;
49870;SDS011;35767;52.322;9.122;2024-01-15T04:47:55;3.88;;;1.58;;
49870;SDS011;35767;52.322;9.122;2024-01-15T04:50:57;7.60;;;2.05;;
49870;SDS011;35767;52.322;9.122;2024-01-15T04:53:59;8.40;;;2.45;;
49870;SDS011;35767;52.322;9.122;2024-01-15T04:57:02;9.50;;;2.10;;
49870;SDS011;35767;52.322;9.122;2024-01-15T05:00:04;3.22;;;1.67;;
49870;SDS011;35767;52.322;9.122;2024-01-15T05:03:38;6.38;;;1.92;;
49870;SDS011;35767;52.322;9.122;2024-01-15T05:06:40;8.30;;;2.83;;
49870;SDS011;35767;52.322;9.122;2024-01-15T05:09:42;10.15;;;2.30;;
49870;SDS011;35767;52.322;9.122;2024-01-15T05:12:45;5.75;;;1.73;;
49870;SDS011;35767;52.322;9.122;2024-01-15T05:15:47;5.10;;;1.55;;
49870;SDS011;35767;52.322;9.122;2024-01-15T05:18:48;7.28;;;1.55;;
49870;SDS011;35767;52.322;9.122;2024-01-15T05:21:50;7.03;;;2.05;;
49870;SDS011;35767;52.322;9.122;2024-01-15T05:24:52;9.32;;;1.83;;
49870;SDS011;35767;52.322;9.122;2024-01-15T05:27:55;6.10;;;1.80;;
49870;SDS011;35767;52.322;9.122;2024-01-15T05:30:57;9.07;;;2.05;;
49870;SDS011;35767;52.322;9.122;2024-01-15T05:33:58;6.88;;;1.75;;
49870;SDS011;35767;52.322;9.122;2024-01-15T05:37:00;6.93;;;2.08;;
49870;SDS011;35767;52.322;9.122;2024-01-15T05:40:02;12.90;;;2.42;;
49870;SDS011;35767;52.322;9.122;2024-01-15T05:43:06;7.20;;;1.88;;
49870;SDS011;35767;52.322;9.122;2024-01-15T05:46:07;5.13;;;1.75;;
49870;SDS011;35767;52.322;9.122;2024-01-15T05:49:41;5.97;;;2.58;;
49870;SDS011;35767;52.322;9.122;2024-01-15T05:52:43;5.22;;;2.13;;
49870;SDS011;35767;52.322;9.122;2024-01-15T05:55:45;3.25;;;2.55;;
49870;SDS011;35767;52.322;9.122;2024-01-15T05:58:47;4.85;;;2.08;;
49870;SDS011;35767;52.322;9.122;2024-01-15T06:01:49;6.57;;;1.98;;
49870;SDS011;35767;52.322;9.122;2024-01-15T06:04:51;8.93;;;1.83;;
49870;SDS011;35767;52.322;9.122;2024-01-15T06:08:24;4.88;;;2.00;;
49870;SDS011;35767;52.322;9.122;2024-01-15T06:11:29;8.15;;;2.08;;
49870;SDS011;35767;52.322;9.122;2024-01-15T06:14:32;7.93;;;2.08;;
49870;SDS011;35767;52.322;9.122;2024-01-15T06:17:34;9.30;;;2.42;;
49870;SDS011;35767;52.322;9.122;2024-01-15T06:20:35;4.63;;;1.75;;
49870;SDS011;35767;52.322;9.122;2024-01-15T06:24:09;6.63;;;2.33;;
49870;SDS011;35767;52.322;9.122;2024-01-15T06:27:11;8.15;;;2.10;;
49870;SDS011;35767;52.322;9.122;2024-01-15T06:30:14;6.90;;;2.53;;
49870;SDS011;35767;52.322;9.122;2024-01-15T06:33:48;9.65;;;2.65;;
49870;SDS011;35767;52.322;9.122;2024-01-15T06:36:50;6.57;;;3.13;;
49870;SDS011;35767;52.322;9.122;2024-01-15T06:39:52;5.32;;;2.67;;
49870;SDS011;35767;52.322;9.122;2024-01-15T06:43:26;6.63;;;2.92;;
49870;SDS011;35767;52.322;9.122;2024-01-15T06:46:28;4.13;;;2.47;;
49870;SDS011;35767;52.322;9.122;2024-01-15T06:49:30;8.85;;;3.35;;
49870;SDS011;35767;52.322;9.122;2024-01-15T06:52:32;6.30;;;2.58;;
49870;SDS011;35767;52.322;9.122;2024-01-15T06:56:05;8.90;;;3.15;;
49870;SDS011;35767;52.322;9.122;2024-01-15T06:59:07;9.43;;;3.60;;
49870;SDS011;35767;52.322;9.122;2024-01-15T07:03:10;5.10;;;2.75;;
49870;SDS011;35767;52.322;9.122;2024-01-15T07:06:44;9.85;;;2.88;;
49870;SDS011;35767;52.322;9.122;2024-01-15T07:10:13;5.63;;;2.10;;
49870;SDS011;35767;52.322;9.122;2024-01-15T07:13:14;7.22;;;2.20;;
49870;SDS011;35767;52.322;9.122;2024-01-15T07:16:16;10.80;;;2.05;;
49870;SDS011;35767;52.322;9.122;2024-01-15T07:19:39;5.43;;;2.30;;
49870;SDS011;35767;52.322;9.122;2024-01-15T07:23:08;9.23;;;3.35;;
49870;SDS011;35767;52.322;9.122;2024-01-15T07:26:09;7.20;;;2.58;;
49870;SDS011;35767;52.322;9.122;2024-01-15T07:29:11;3.75;;;1.98;;
49870;SDS011;35767;52.322;9.122;2024-01-15T07:32:17;4.47;;;2.50;;
49870;SDS011;35767;52.322;9.122;2024-01-15T07:35:53;9.82;;;4.63;;
49870;SDS011;35767;52.322;9.122;2024-01-15T07:39:26;8.93;;;4.47;;
49870;SDS011;35767;52.322;9.122;2024-01-15T07:42:28;6.10;;;2.45;;
49870;SDS011;35767;52.322;9.122;2024-01-15T07:45:30;6.38;;;2.63;;
49870;SDS011;35767;52.322;9.122;2024-01-15T07:49:03;4.32;;;2.25;;
49870;SDS011;35767;52.322;9.122;2024-01-15T07:52:34;5.20;;;2.42;;
49870;SDS011;35767;52.322;9.122;2024-01-15T07:56:07;6.93;;;2.65;;
49870;SDS011;35767;52.322;9.122;2024-01-15T07:59:42;2.97;;;1.92;;
49870;SDS011;35767;52.322;9.122;2024-01-15T08:03:16;4.45;;;1.95;;
49870;SDS011;35767;52.322;9.122;2024-01-15T08:06:17;4.40;;;1.83;;
49870;SDS011;35767;52.322;9.122;2024-01-15T08:09:20;4.57;;;1.75;;
49870;SDS011;35767;52.322;9.122;2024-01-15T08:12:22;6.90;;;2.45;;
49870;SDS011;35767;52.322;9.122;2024-01-15T08:15:24;6.75;;;2.10;;
49870;SDS011;35767;52.322;9.122;2024-01-15T08:18:30;6.07;;;1.88;;
49870;SDS011;35767;52.322;9.122;2024-01-15T08:21:59;6.60;;;2.30;;
49870;SDS011;35767;52.322;9.122;2024-01-15T08:25:34;4.25;;;2.38;;
49870;SDS011;35767;52.322;9.122;2024-01-15T08:28:36;6.03;;;2.10;;
49870;SDS011;35767;52.322;9.122;2024-01-15T08:32:05;6.43;;;2.80;;
49870;SDS011;35767;52.322;9.122;2024-01-15T08:35:07;5.55;;;1.73;;
49870;SDS011;35767;52.322;9.122;2024-01-15T08:38:36;8.90;;;2.42;;
49870;SDS011;35767;52.322;9.122;2024-01-15T08:41:39;6.35;;;2.15;;
49870;SDS011;35767;52.322;9.122;2024-01-15T08:44:41;6.00;;;2.70;;
49870;SDS011;35767;52.322;9.122;2024-01-15T08:48:15;5.35;;;2.50;;
49870;SDS011;35767;52.322;9.122;2024-01-15T08:51:48;8.93;;;3.03;;
49870;SDS011;35767;52.322;9.122;2024-01-15T08:54:49;4.18;;;2.00;;
49870;SDS011;35767;52.322;9.122;2024-01-15T08:57:52;5.25;;;2.30;;
49870;SDS011;35767;52.322;9.122;2024-01-15T09:00:54;5.30;;;2.30;;
49870;SDS011;35767;52.322;9.122;2024-01-15T09:04:00;3.70;;;2.30;;
49870;SDS011;35767;52.322;9.122;2024-01-15T09:07:29;5.57;;;3.13;;
49870;SDS011;35767;52.322;9.122;2024-01-15T09:10:31;2.90;;;2.55;;
49870;SDS011;35767;52.322;9.122;2024-01-15T09:14:07;7.10;;;3.13;;
49870;SDS011;35767;52.322;9.122;2024-01-15T09:17:09;4.95;;;3.10;;
49870;SDS011;35767;52.322;9.122;2024-01-15T09:20:10;3.97;;;3.05;;
49870;SDS011;35767;52.322;9.122;2024-01-15T09:23:45;6.30;;;3.47;;
49870;SDS011;35767;52.322;9.122;2024-01-15T09:26:46;5.57;;;2.67;;
49870;SDS011;35767;52.322;9.122;2024-01-15T09:29:49;5.63;;;3.40;;
49870;SDS011;35767;52.322;9.122;2024-01-15T09:32:53;4.80;;;2.63;;
49870;SDS011;35767;52.322;9.122;2024-01-15T09:35:55;3.80;;;3.40;;
49870;SDS011;35767;52.322;9.122;2024-01-15T09:38:56;5.40;;;3.35;;
49870;SDS011;35767;52.322;9.122;2024-01-15T09:41:58;6.20;;;3.35;;
49870;SDS011;35767;52.322;9.122;2024-01-15T09:45:34;6.47;;;3.47;;
49870;SDS011;35767;52.322;9.122;2024-01-15T09:48:36;5.13;;;3.72;;
49870;SDS011;35767;52.322;9.122;2024-01-15T09:51:38;7.30;;;3.58;;
49870;SDS011;35767;52.322;9.122;2024-01-15T09:55:13;3.97;;;3.17;;
49870;SDS011;35767;52.322;9.122;2024-01-15T09:58:15;2.67;;;2.33;;
49870;SDS011;35767;52.322;9.122;2024-01-15T10:01:18;5.78;;;2.20;;
49870;SDS011;35767;52.322;9.122;2024-01-15T10:04:53;1.45;;;1.27;;
49870;SDS011;35767;52.322;9.122;2024-01-15T10:07:56;3.33;;;1.30;;
49870;SDS011;35767;52.322;9.122;2024-01-15T10:10:58;3.17;;;1.73;;
49870;SDS011;35767;52.322;9.122;2024-01-15T10:13:59;4.60;;;1.92;;
49870;SDS011;35767;52.322;9.122;2024-01-15T10:17:03;2.35;;;1.85;;
49870;SDS011;35767;52.322;9.122;2024-01-15T10:20:13;4.97;;;1.70;;
49870;SDS011;35767;52.322;9.122;2024-01-15T10:23:15;4.95;;;2.40;;
49870;SDS011;35767;52.322;9.122;2024-01-15T10:26:16;2.33;;;1.55;;
49870;SDS011;35767;52.322;9.122;2024-01-15T10:30:18;3.75;;;1.65;;
49870;SDS011;35767;52.322;9.122;2024-01-15T10:33:22;1.65;;;1.30;;
49870;SDS011;35767;52.322;9.122;2024-01-15T10:36:25;3.72;;;1.75;;
49870;SDS011;35767;52.322;9.122;2024-01-15T10:39:27;2.92;;;2.17;;
49870;SDS011;35767;52.322;9.122;2024-01-15T10:43:01;2.60;;;1.85;;
49870;SDS011;35767;52.322;9.122;2024-01-15T10:46:03;3.78;;;2.40;;
49870;SDS011;35767;52.322;9.122;2024-01-15T10:49:06;4.97;;;2.38;;
49870;SDS011;35767;52.322;9.122;2024-01-15T10:52:08;3.60;;;2.00;;
49870;SDS011;35767;52.322;9.122;2024-01-15T10:55:10;3.47;;;2.25;;
49870;SDS011;35767;52.322;9.122;2024-01-15T10:58:20;2.35;;;1.67;;
49870;SDS011;35767;52.322;9.122;2024-01-15T11:01:54;4.03;;;2.20;;
49870;SDS011;35767;52.322;9.122;2024-01-15T11:04:58;4.78;;;2.15;;
49870;SDS011;35767;52.322;9.122;2024-01-15T11:08:00;4.05;;;2.45;;
49870;SDS011;35767;52.322;9.122;2024-01-15T11:11:02;3.60;;;1.88;;
49870;SDS011;35767;52.322;9.122;2024-01-15T11:14:38;5.65;;;2.30;;
49870;SDS011;35767;52.322;9.122;2024-01-15T11:18:12;3.45;;;2.17;;
49870;SDS011;35767;52.322;9.122;2024-01-15T11:21:21;11.25;;;2.72;;
49870;SDS011;35767;52.322;9.122;2024-01-15T11:24:51;6.00;;;2.45;;
49870;SDS011;35767;52.322;9.122;2024-01-15T11:32:01;5.40;;;1.95;;
49870;SDS011;35767;52.322;9.122;2024-01-15T11:35:04;4.63;;;2.60;;
49870;SDS011;35767;52.322;9.122;2024-01-15T11:38:07;12.38;;;2.67;;
49870;SDS011;35767;52.322;9.122;2024-01-15T11:41:42;10.15;;;3.80;;
49870;SDS011;35767;52.322;9.122;2024-01-15T11:45:11;8.73;;;3.42;;
49870;SDS011;35767;52.322;9.122;2024-01-15T11:48:45;7.22;;;3.20;;
49870;SDS011;35767;52.322;9.122;2024-01-15T11:52:14;8.93;;;2.83;;
49870;SDS011;35767;52.322;9.122;2024-01-15T12:00:23;12.30;;;2.75;;
49870;SDS011;35767;52.322;9.122;2024-01-15T12:03:25;6.03;;;2.08;;
49870;SDS011;35767;52.322;9.122;2024-01-15T12:06:59;9.13;;;2.90;;
49870;SDS011;35767;52.322;9.122;2024-01-15T12:10:33;7.28;;;2.40;;
49870;SDS011;35767;52.322;9.122;2024-01-15T12:14:35;5.45;;;2.00;;
49870;SDS011;35767;52.322;9.122;2024-01-15T12:17:37;5.00;;;1.58;;
49870;SDS011;35767;52.322;9.122;2024-01-15T12:20:39;4.50;;;2.28;;
49870;SDS011;35767;52.322;9.122;2024-01-15T12:23:42;6.03;;;2.78;;
49870;SDS011;35767;52.322;9.122;2024-01-15T12:27:16;5.63;;;2.30;;
49870;SDS011;35767;52.322;9.122;2024-01-15T12:30:19;5.15;;;3.05;;
49870;SDS011;35767;52.322;9.122;2024-01-15T12:33:21;6.03;;;2.22;;
49870;SDS011;35767;52.322;9.122;2024-01-15T12:36:56;12.65;;;2.10;;
49870;SDS011;35767;52.322;9.122;2024-01-15T12:40:30;5.50;;;2.28;;
49870;SDS011;35767;52.322;9.122;2024-01-15T12:44:00;5.03;;;2.25;;
49870;SDS011;35767;52.322;9.122;2024-01-15T12:47:30;7.57;;;2.60;;
49870;SDS011;35767;52.322;9.122;2024-01-15T12:50:33;7.20;;;2.47;;
49870;SDS011;35767;52.322;9.122;2024-01-15T12:54:06;4.80;;;1.95;;
49870;SDS011;35767;52.322;9.122;2024-01-15T12:57:35;9.82;;;3.03;;
49870;SDS011;35767;52.322;9.122;2024-01-15T13:01:09;6.72;;;2.40;;
49870;SDS011;35767;52.322;9.122;2024-01-15T13:04:45;4.22;;;1.60;;
49870;SDS011;35767;52.322;9.122;2024-01-15T13:07:47;4.18;;;1.92;;
49870;SDS011;35767;52.322;9.122;2024-01-15T13:11:20;5.25;;;2.42;;
49870;SDS011;35767;52.322;9.122;2024-01-15T13:14:54;4.30;;;2.35;;
49870;SDS011;35767;52.322;9.122;2024-01-15T13:17:55;9.35;;;2.42;;
49870;SDS011;35767;52.322;9.122;2024-01-15T13:20:58;5.53;;;2.83;;
49870;SDS011;35767;52.322;9.122;2024-01-15T13:24:00;5.25;;;2.35;;
49870;SDS011;35767;52.322;9.122;2024-01-15T13:27:01;6.10;;;2.50;;
49870;SDS011;35767;52.322;9.122;2024-01-15T13:30:31;4.15;;;2.58;;
49870;SDS011;35767;52.322;9.122;2024-01-15T13:33:33;4.50;;;2.60;;
49870;SDS011;35767;52.322;9.122;2024-01-15T13:36:36;4.03;;;2.60;;
49870;SDS011;35767;52.322;9.122;2024-01-15T13:39:37;6.78;;;2.97;;
49870;SDS011;35767;52.322;9.122;2024-01-15T13:42:39;8.10;;;2.70;;
49870;SDS011;35767;52.322;9.122;2024-01-15T13:46:13;7.07;;;3.30;;
49870;SDS011;35767;52.322;9.122;2024-01-15T13:50:14;4.63;;;2.45;;
49870;SDS011;35767;52.322;9.122;2024-01-15T13:53:17;2.60;;;2.00;;
49870;SDS011;35767;52.322;9.122;2024-01-15T13:56:47;2.45;;;2.25;;
49870;SDS011;35767;52.322;9.122;2024-01-15T13:59:48;5.40;;;2.00;;
49870;SDS011;35767;52.322;9.122;2024-01-15T14:06:24;5.35;;;2.60;;
49870;SDS011;35767;52.322;9.122;2024-01-15T14:09:54;5.35;;;3.03;;
49870;SDS011;35767;52.322;9.122;2024-01-15T14:12:56;6.10;;;2.60;;
49870;SDS011;35767;52.322;9.122;2024-01-15T14:15:58;6.85;;;2.95;;
49870;SDS011;35767;52.322;9.122;2024-01-15T14:18:59;4.30;;;2.60;;
49870;SDS011;35767;52.322;9.122;2024-01-15T14:22:29;5.53;;;2.65;;
49870;SDS011;35767;52.322;9.122;2024-01-15T14:25:32;4.85;;;2.55;;
49870;SDS011;35767;52.322;9.122;2024-01-15T14:29:01;4.60;;;3.00;;
49870;SDS011;35767;52.322;9.122;2024-01-15T14:32:03;8.50;;;4.18;;
49870;SDS011;35767;52.322;9.122;2024-01-15T14:35:04;5.38;;;3.55;;
49870;SDS011;35767;52.322;9.122;2024-01-15T14:39:06;5.15;;;3.00;;
49870;SDS011;35767;52.322;9.122;2024-01-15T14:42:41;4.93;;;2.20;;
49870;SDS011;35767;52.322;9.122;2024-01-15T14:46:16;4.38;;;2.42;;
49870;SDS011;35767;52.322;9.122;2024-01-15T14:49:17;4.10;;;2.40;;
49870;SDS011;35767;52.322;9.122;2024-01-15T14:52:54;4.18;;;1.98;;
49870;SDS011;35767;52.322;9.122;2024-01-15T14:55:55;5.03;;;2.20;;
49870;SDS011;35767;52.322;9.122;2024-01-15T14:59:31;2.70;;;1.65;;
49870;SDS011;35767;52.322;9.122;2024-01-15T15:02:33;2.05;;;1.48;;
49870;SDS011;35767;52.322;9.122;2024-01-15T15:05:35;2.33;;;1.65;;
49870;SDS011;35767;52.322;9.122;2024-01-15T15:08:36;2.28;;;1.60;;
49870;SDS011;35767;52.322;9.122;2024-01-15T15:11:38;5.18;;;1.67;;
49870;SDS011;35767;52.322;9.122;2024-01-15T15:14:41;2.03;;;1.63;;
49870;SDS011;35767;52.322;9.122;2024-01-15T15:18:00;1.75;;;1.33;;
49870;SDS011;35767;52.322;9.122;2024-01-15T15:21:01;2.72;;;1.50;;
49870;SDS011;35767;52.322;9.122;2024-01-15T15:24:03;2.00;;;1.45;;
49870;SDS011;35767;52.322;9.122;2024-01-15T15:27:37;2.40;;;1.50;;
49870;SDS011;35767;52.322;9.122;2024-01-15T15:30:44;2.53;;;1.40;;
49870;SDS011;35767;52.322;9.122;2024-01-15T15:33:45;1.38;;;1.27;;
49870;SDS011;35767;52.322;9.122;2024-01-15T15:36:47;5.47;;;2.25;;
49870;SDS011;35767;52.322;9.122;2024-01-15T15:39:49;1.83;;;1.55;;
49870;SDS011;35767;52.322;9.122;2024-01-15T15:42:50;2.45;;;1.50;;
49870;SDS011;35767;52.322;9.122;2024-01-15T15:45:53;1.90;;;1.50;;
49870;SDS011;35767;52.322;9.122;2024-01-15T15:48:55;1.98;;;1.50;;
49870;SDS011;35767;52.322;9.122;2024-01-15T15:51:57;2.75;;;1.35;;
49870;SDS011;35767;52.322;9.122;2024-01-15T15:55:26;1.10;;;1.08;;
49870;SDS011;35767;52.322;9.122;2024-01-15T15:58:27;1.77;;;1.50;;
49870;SDS011;35767;52.322;9.122;2024-01-15T16:01:30;1.45;;;1.35;;
49870;SDS011;35767;52.322;9.122;2024-01-15T16:04:32;3.13;;;1.27;;
49870;SDS011;35767;52.322;9.122;2024-01-15T16:07:34;1.95;;;1.45;;
49870;SDS011;35767;52.322;9.122;2024-01-15T16:10:35;9.75;;;1.55;;
49870;SDS011;35767;52.322;9.122;2024-01-15T16:13:37;2.97;;;1.60;;
49870;SDS011;35767;52.322;9.122;2024-01-15T16:16:40;4.28;;;1.25;;
49870;SDS011;35767;52.322;9.122;2024-01-15T16:20:01;1.50;;;1.40;;
49870;SDS011;35767;52.322;9.122;2024-01-15T16:23:23;3.43;;;2.10;;
49870;SDS011;35767;52.322;9.122;2024-01-15T16:26:44;4.93;;;2.72;;
49870;SDS011;35767;52.322;9.122;2024-01-15T16:29:46;4.20;;;2.03;;
49870;SDS011;35767;52.322;9.122;2024-01-15T16:32:49;1.83;;;1.58;;
49870;SDS011;35767;52.322;9.122;2024-01-15T16:35:51;1.40;;;1.30;;
49870;SDS011;35767;52.322;9.122;2024-01-15T16:38:53;1.77;;;1.52;;
49870;SDS011;35767;52.322;9.122;2024-01-15T16:42:22;5.78;;;2.33;;
49870;SDS011;35767;52.322;9.122;2024-01-15T16:45:23;3.33;;;2.67;;
49870;SDS011;35767;52.322;9.122;2024-01-15T16:48:26;3.72;;;2.28;;
49870;SDS011;35767;52.322;9.122;2024-01-15T16:51:28;5.53;;;2.50;;
49870;SDS011;35767;52.322;9.122;2024-01-15T16:54:57;6.20;;;3.17;;
49870;SDS011;35767;52.322;9.122;2024-01-15T16:57:58;10.30;;;5.05;;
49870;SDS011;35767;52.322;9.122;2024-01-15T17:01:00;8.18;;;4.25;;
49870;SDS011;35767;52.322;9.122;2024-01-15T17:04:03;3.45;;;2.85;;
49870;SDS011;35767;52.322;9.122;2024-01-15T17:07:04;3.20;;;3.00;;
49870;SDS011;35767;52.322;9.122;2024-01-15T17:10:06;3.53;;;2.30;;
49870;SDS011;35767;52.322;9.122;2024-01-15T17:13:40;6.68;;;2.40;;
49870;SDS011;35767;52.322;9.122;2024-01-15T17:17:17;5.82;;;2.45;;
49870;SDS011;35767;52.322;9.122;2024-01-15T17:20:20;3.92;;;2.20;;
49870;SDS011;35767;52.322;9.122;2024-01-15T17:23:21;4.50;;;2.47;;
49870;SDS011;35767;52.322;9.122;2024-01-15T17:26:55;5.82;;;2.25;;
49870;SDS011;35767;52.322;9.122;2024-01-15T17:29:56;6.35;;;2.45;;
49870;SDS011;35767;52.322;9.122;2024-01-15T17:33:30;5.20;;;2.70;;
49870;SDS011;35767;52.322;9.122;2024-01-15T17:36:33;4.47;;;2.63;;
49870;SDS011;35767;52.322;9.122;2024-01-15T17:39:34;7.75;;;2.08;;
49870;SDS011;35767;52.322;9.122;2024-01-15T17:42:36;3.88;;;1.58;;
49870;SDS011;35767;52.322;9.122;2024-01-15T17:46:15;4.00;;;2.35;;
49870;SDS011;35767;52.322;9.122;2024-01-15T17:49:17;3.28;;;2.17;;
49870;SDS011;35767;52.322;9.122;2024-01-15T17:52:52;3.53;;;2.10;;
49870;SDS011;35767;52.322;9.122;2024-01-15T17:55:54;3.50;;;1.70;;
49870;SDS011;35767;52.322;9.122;2024-01-15T17:59:55;3.88;;;1.80;;
49870;SDS011;35767;52.322;9.122;2024-01-15T18:03:29;3.00;;;2.58;;
49870;SDS011;35767;52.322;9.122;2024-01-15T18:06:30;5.45;;;2.13;;
49870;SDS011;35767;52.322;9.122;2024-01-15T18:09:34;3.03;;;2.03;;
49870;SDS011;35767;52.322;9.122;2024-01-15T18:12:35;7.38;;;2.70;;
49870;SDS011;35767;52.322;9.122;2024-01-15T18:16:09;6.85;;;3.65;;
49870;SDS011;35767;52.322;9.122;2024-01-15T18:19:11;6.50;;;2.80;;
49870;SDS011;35767;52.322;9.122;2024-01-15T18:22:12;3.80;;;2.38;;
49870;SDS011;35767;52.322;9.122;2024-01-15T18:25:15;7.28;;;4.55;;
49870;SDS011;35767;52.322;9.122;2024-01-15T18:28:17;8.68;;;4.60;;
49870;SDS011;35767;52.322;9.122;2024-01-15T18:31:46;8.77;;;4.70;;
49870;SDS011;35767;52.322;9.122;2024-01-15T18:34:48;9.27;;;3.13;;
49870;SDS011;35767;52.322;9.122;2024-01-15T18:37:50;7.05;;;3.75;;
49870;SDS011;35767;52.322;9.122;2024-01-15T18:40:52;7.65;;;3.55;;
49870;SDS011;35767;52.322;9.122;2024-01-15T18:43:54;5.18;;;2.92;;
49870;SDS011;35767;52.322;9.122;2024-01-15T18:46:55;4.80;;;2.72;;
49870;SDS011;35767;52.322;9.122;2024-01-15T18:49:57;5.57;;;2.80;;
49870;SDS011;35767;52.322;9.122;2024-01-15T18:53:31;6.53;;;2.85;;
49870;SDS011;35767;52.322;9.122;2024-01-15T18:56:34;5.90;;;3.03;;
49870;SDS011;35767;52.322;9.122;2024-01-15T18:59:41;10.18;;;3.13;;
49870;SDS011;35767;52.322;9.122;2024-01-15T19:02:43;6.28;;;2.50;;
49870;SDS011;35767;52.322;9.122;2024-01-15T19:05:45;4.97;;;2.28;;
49870;SDS011;35767;52.322;9.122;2024-01-15T19:08:46;5.70;;;2.22;;
49870;SDS011;35767;52.322;9.122;2024-01-15T19:12:21;5.15;;;2.58;;
49870;SDS011;35767;52.322;9.122;2024-01-15T19:15:51;4.72;;;2.55;;
49870;SDS011;35767;52.322;9.122;2024-01-15T19:18:52;3.47;;;2.03;;
49870;SDS011;35767;52.322;9.122;2024-01-15T19:21:54;7.43;;;2.78;;